• pl
  • eng

Awiacja
Click on the bold red name to decode a message. 01:00 01.01.1970

METAR EPBY 211600Z 18013G23KT 150V210 CAVOK 27/11 Q1004 =

METAR EPGD 211600Z 17015G25KT CAVOK 26/12 Q1003 =

METAR EPKK 211600Z 16005KT CAVOK 25/12 Q1011 =

METAR EPKT 211600Z 19006KT 150V210 CAVOK 25/11 Q1011 =

METAR EPLB 211600Z 17004KT CAVOK 23/14 Q1013 =

METAR EPLL 211600Z 15004KT 110V180 CAVOK 24/12 Q1009 =

METAR EPMO 211600Z 15008KT CAVOK 25/11 Q1009 =

METAR EPPO 211600Z 19012KT CAVOK 28/11 Q1004 =

METAR EPRA 211600Z 18008KT CAVOK 23/13 Q1011=

METAR EPRZ 211600Z 17008KT 150V210 CAVOK 24/11 Q1014 =

METAR EPSC 211600Z 28024G39KT 9999 FEW006 SCT023CB 16/10 Q1004 =

METAR EPSY 211600Z 16010KT CAVOK 24/11 Q1008=

METAR EPWA 211600Z 16008KT CAVOK 23/12 Q1010 NOSIG=

METAR EPWR 211600Z 18013KT CAVOK 27/13 Q1007 =

METAR EPZG 211600Z NIL=
Awiacja.imgw.pl jest pogodowym serwisem informacyjnym
Instytutu Meteorologii i Gospodarki Wodnej Państwowego Instytutu Badawczego.
Copyright IMGW PIB 2009-2011© Wszelkie prawa zastrzeżone.